createdAt,value
2023-05-23T00:00:15.715Z,89.52
2023-05-23T00:02:43.118Z,89.85
2023-05-23T00:05:10.096Z,92.64
2023-05-23T00:07:36.888Z,91.20
2023-05-23T00:10:04.667Z,89.84
2023-05-23T00:12:31.577Z,89.72
2023-05-23T00:14:58.371Z,91.81
2023-05-23T00:17:26.566Z,92.02
2023-05-23T00:19:53.401Z,91.35
2023-05-23T00:22:20.306Z,89.57
2023-05-23T00:24:47.156Z,88.66
2023-05-23T00:27:13.953Z,89.00
2023-05-23T00:29:41.157Z,86.39
2023-05-23T00:32:07.980Z,85.23
2023-05-23T00:34:34.898Z,85.72
2023-05-23T00:37:02.424Z,83.77
2023-05-23T00:39:29.583Z,82.39
2023-05-23T00:41:57.361Z,80.81
2023-05-23T00:44:24.388Z,81.20
2023-05-23T00:46:53.913Z,80.95
2023-05-23T00:49:21.375Z,80.11
2023-05-23T00:51:49.910Z,83.35
2023-05-23T00:54:21.274Z,85.02
2023-05-23T00:56:48.867Z,86.68
2023-05-23T00:59:16.453Z,88.43
2023-05-23T01:01:46.926Z,86.88
2023-05-23T01:04:14.984Z,84.96
2023-05-23T01:06:42.008Z,81.23
2023-05-23T01:09:09.843Z,87.56
2023-05-23T01:12:02.803Z,87.63
2023-05-23T01:14:53.561Z,86.06
2023-05-23T01:17:55.271Z,85.40
2023-05-23T01:20:24.338Z,80.52
2023-05-23T01:23:14.542Z,80.76
2023-05-23T01:25:50.440Z,85.80
2023-05-23T01:28:20.493Z,87.66
2023-05-23T01:30:50.656Z,86.00
2023-05-23T01:33:18.418Z,87.52
2023-05-23T01:35:46.342Z,85.86
2023-05-23T01:38:13.263Z,84.21
2023-05-23T01:40:40.123Z,81.20
2023-05-23T01:43:07.093Z,84.95
2023-05-23T01:45:34.653Z,87.23
2023-05-23T01:48:04.173Z,88.14
2023-05-23T01:50:32.409Z,89.65
2023-05-23T01:53:00.331Z,92.39
2023-05-23T01:55:28.331Z,88.31
2023-05-23T01:57:57.718Z,86.73
2023-05-23T02:00:25.266Z,86.44
2023-05-23T02:02:52.243Z,86.45
2023-05-23T02:05:19.203Z,84.83
2023-05-23T02:07:46.066Z,84.87
2023-05-23T02:10:13.032Z,86.07
2023-05-23T02:12:40.127Z,87.69
2023-05-23T02:15:07.913Z,87.71
2023-05-23T02:17:34.980Z,86.66
2023-05-23T02:20:01.902Z,97.03
2023-05-23T02:22:28.699Z,93.85
2023-05-23T02:24:55.580Z,90.66
2023-05-23T02:27:22.426Z,88.40
2023-05-23T02:29:49.335Z,88.10
2023-05-23T02:32:16.281Z,90.54
2023-05-23T02:34:46.926Z,89.35
2023-05-23T02:37:15.015Z,86.91
2023-05-23T02:39:41.867Z,87.03
2023-05-23T02:42:08.856Z,93.03
2023-05-23T02:44:35.895Z,91.13
2023-05-23T02:47:02.814Z,90.20
2023-05-23T02:49:29.827Z,88.85
2023-05-23T02:51:56.744Z,91.54
2023-05-23T02:54:23.682Z,93.56
2023-05-23T02:56:52.528Z,93.40
2023-05-23T02:59:19.474Z,93.00
2023-05-23T03:01:46.465Z,97.08
2023-05-23T03:04:13.943Z,94.28
2023-05-23T03:06:42.331Z,95.70
2023-05-23T03:09:09.882Z,97.82
2023-05-23T03:11:37.517Z,97.57
2023-05-23T03:14:04.414Z,96.80
2023-05-23T03:16:31.438Z,100.00
2023-05-23T03:18:58.907Z,98.43
2023-05-23T03:21:25.986Z,96.86
2023-05-23T03:23:52.881Z,96.00
2023-05-23T03:26:20.161Z,96.91
2023-05-23T03:28:47.100Z,98.69
2023-05-23T03:31:14.059Z,99.04
2023-05-23T03:33:41.153Z,100.00
2023-05-23T03:36:08.161Z,99.48
2023-05-23T03:38:35.192Z,100.00
2023-05-23T03:41:02.174Z,100.00
2023-05-23T03:43:29.111Z,100.00
2023-05-23T03:45:56.134Z,100.00
2023-05-23T03:48:22.984Z,98.60
2023-05-23T03:50:50.052Z,95.16
2023-05-23T03:53:16.941Z,93.70
2023-05-23T03:55:43.987Z,90.29
2023-05-23T03:58:11.036Z,87.73
2023-05-23T04:00:37.859Z,84.18
2023-05-23T04:03:05.216Z,83.37
2023-05-23T04:05:32.279Z,80.18
2023-05-23T04:08:01.599Z,79.96
2023-05-23T04:10:28.581Z,76.49
2023-05-23T04:12:57.125Z,75.52
2023-05-23T04:15:23.994Z,75.66
2023-05-23T04:17:51.881Z,73.23
2023-05-23T04:20:18.939Z,71.36
2023-05-23T04:22:45.852Z,68.93
2023-05-23T04:25:12.743Z,67.14
2023-05-23T04:27:40.684Z,66.18
2023-05-23T04:30:10.182Z,65.39
2023-05-23T04:32:38.013Z,66.06
2023-05-23T04:35:05.144Z,67.00
2023-05-23T04:37:33.332Z,67.21
2023-05-23T04:40:00.992Z,65.03
2023-05-23T04:42:29.618Z,62.76
2023-05-23T04:44:59.266Z,60.74
2023-05-23T04:47:28.333Z,59.38
2023-05-23T04:49:57.408Z,58.56
2023-05-23T04:52:24.404Z,57.72
2023-05-23T04:54:51.404Z,57.96
2023-05-23T04:57:18.512Z,57.71
2023-05-23T04:59:46.654Z,57.27
2023-05-23T05:02:13.585Z,56.75
2023-05-23T05:04:40.894Z,55.89
2023-05-23T05:07:07.835Z,56.80
2023-05-23T05:09:35.138Z,57.07
2023-05-23T05:12:02.226Z,58.60
2023-05-23T05:14:29.109Z,57.82
2023-05-23T05:16:57.863Z,58.59
2023-05-23T05:19:24.975Z,59.63
2023-05-23T05:21:52.651Z,56.14
2023-05-23T05:24:21.283Z,57.85
2023-05-23T05:26:49.591Z,56.23
2023-05-23T05:29:16.670Z,56.10
2023-05-23T05:31:45.379Z,57.23
2023-05-23T05:34:12.849Z,58.04
2023-05-23T05:36:46.144Z,58.21
2023-05-23T05:39:14.065Z,59.45
2023-05-23T05:41:41.405Z,58.29
2023-05-23T05:44:09.064Z,58.54
2023-05-23T05:46:36.057Z,59.86
2023-05-23T05:49:03.233Z,60.70
2023-05-23T05:51:30.156Z,60.95
2023-05-23T05:53:57.016Z,62.73
2023-05-23T05:56:24.012Z,62.18
2023-05-23T05:58:50.919Z,65.57
2023-05-23T06:01:19.121Z,65.70
2023-05-23T06:03:46.137Z,64.55
2023-05-23T06:06:13.338Z,65.24
2023-05-23T06:08:40.246Z,64.93
2023-05-23T06:11:07.115Z,65.20
2023-05-23T06:13:34.163Z,67.35
2023-05-23T06:16:01.038Z,67.64
2023-05-23T06:18:27.973Z,67.12
2023-05-23T06:20:54.756Z,68.32
2023-05-23T06:23:21.672Z,68.41
2023-05-23T06:25:48.650Z,69.45
2023-05-23T06:28:15.575Z,68.69
2023-05-23T06:30:42.895Z,69.20
2023-05-23T06:33:10.251Z,68.75
2023-05-23T06:35:37.213Z,69.82
2023-05-23T06:38:04.066Z,77.78
2023-05-23T06:40:30.974Z,70.72
2023-05-23T06:42:57.817Z,69.85
2023-05-23T06:45:24.756Z,69.74
2023-05-23T06:47:51.840Z,67.36
2023-05-23T06:50:21.580Z,66.67
2023-05-23T06:52:48.779Z,64.68
2023-05-23T06:55:18.456Z,67.23
2023-05-23T06:57:45.604Z,66.50
2023-05-23T07:00:14.088Z,67.11
2023-05-23T07:02:41.226Z,64.08
2023-05-23T07:05:08.505Z,63.99
2023-05-23T07:07:35.490Z,59.05
2023-05-23T07:10:02.414Z,57.73
2023-05-23T07:12:29.330Z,61.45
2023-05-23T07:14:56.309Z,58.20
2023-05-23T07:17:23.175Z,57.14
2023-05-23T07:19:50.272Z,57.98
2023-05-23T07:22:17.139Z,54.90
2023-05-23T07:24:44.017Z,52.80
2023-05-23T07:27:10.930Z,53.36
2023-05-23T07:29:37.804Z,55.82
2023-05-23T07:32:05.016Z,56.42
2023-05-23T07:34:31.852Z,54.00
2023-05-23T07:36:58.656Z,55.23
2023-05-23T07:39:26.088Z,56.12
2023-05-23T07:41:52.961Z,48.82
2023-05-23T07:44:22.327Z,46.87
2023-05-23T07:46:51.878Z,46.05
2023-05-23T07:49:19.022Z,43.96
2023-05-23T07:51:46.008Z,43.80
2023-05-23T07:54:15.086Z,41.67
2023-05-23T07:56:43.670Z,38.68
2023-05-23T07:59:10.664Z,36.99
2023-05-23T08:01:37.693Z,37.45
2023-05-23T08:04:04.797Z,37.95
2023-05-23T08:06:32.089Z,37.35
2023-05-23T08:08:59.055Z,37.25
2023-05-23T08:11:27.729Z,36.73
2023-05-23T08:13:54.906Z,35.95
2023-05-23T08:16:21.998Z,36.55
2023-05-23T08:18:48.917Z,35.17
2023-05-23T08:21:15.809Z,34.07
2023-05-23T08:23:42.704Z,36.92
2023-05-23T08:26:09.614Z,35.94
2023-05-23T08:28:36.620Z,37.26
2023-05-23T08:31:03.704Z,39.09
2023-05-23T08:33:30.697Z,38.81
2023-05-23T08:35:57.575Z,35.40
2023-05-23T08:38:24.452Z,35.63
2023-05-23T08:40:55.427Z,34.27
2023-05-23T08:43:22.599Z,34.12
2023-05-23T08:45:52.090Z,33.46
2023-05-23T08:48:21.022Z,33.67
2023-05-23T08:50:49.469Z,34.38
2023-05-23T08:53:23.140Z,32.21
2023-05-23T08:55:55.882Z,33.37
2023-05-23T08:58:24.979Z,31.96
2023-05-23T09:00:53.873Z,31.33
2023-05-23T09:03:21.355Z,32.22
2023-05-23T09:05:50.631Z,32.44
2023-05-23T09:08:19.379Z,32.83
2023-05-23T09:10:46.873Z,31.64
2023-05-23T09:13:13.803Z,31.45
2023-05-23T09:15:57.877Z,32.50
2023-05-23T09:18:27.232Z,35.72
2023-05-23T09:20:54.331Z,34.31
2023-05-23T09:23:21.593Z,34.70
2023-05-23T09:25:49.069Z,35.39
2023-05-23T09:28:16.196Z,34.60
2023-05-23T09:30:43.179Z,33.10
2023-05-23T09:33:10.175Z,36.40
2023-05-23T09:35:43.795Z,36.98
2023-05-23T09:38:10.962Z,35.38
2023-05-23T09:40:38.064Z,34.71
2023-05-23T09:43:05.781Z,33.83
2023-05-23T09:45:33.813Z,33.73
2023-05-23T09:48:01.899Z,39.55
2023-05-23T09:50:34.127Z,35.00
2023-05-23T09:53:01.821Z,35.44
2023-05-23T09:55:28.820Z,35.76
2023-05-23T09:57:58.795Z,38.26
2023-05-23T10:00:26.199Z,36.21
2023-05-23T10:03:01.918Z,34.46
2023-05-23T10:05:38.245Z,37.63
2023-05-23T10:08:27.497Z,34.18
2023-05-23T10:10:57.629Z,34.21
2023-05-23T10:13:28.907Z,34.01
2023-05-23T10:16:15.407Z,31.77
2023-05-23T10:18:44.851Z,31.96
2023-05-23T10:21:29.116Z,30.85
2023-05-23T10:23:57.197Z,33.34
2023-05-23T10:26:24.239Z,30.15
2023-05-23T10:28:52.297Z,28.89
2023-05-23T10:31:20.968Z,27.66
2023-05-23T10:33:58.831Z,27.72
2023-05-23T10:36:53.927Z,28.75
2023-05-23T10:39:35.995Z,27.08
2023-05-23T10:42:10.388Z,26.85
2023-05-23T10:44:37.474Z,27.80
2023-05-23T10:47:05.149Z,26.30
2023-05-23T10:49:39.443Z,26.79
2023-05-23T10:52:07.546Z,25.01
2023-05-23T10:54:42.152Z,27.87
2023-05-23T10:57:11.812Z,25.74
2023-05-23T10:59:42.003Z,26.56
2023-05-23T11:02:29.734Z,26.31
2023-05-23T11:05:18.828Z,27.47
2023-05-23T11:07:45.981Z,27.71
2023-05-23T11:10:17.396Z,28.08
2023-05-23T11:12:44.996Z,25.65
2023-05-23T11:15:17.982Z,26.60
2023-05-23T11:18:07.027Z,24.68
2023-05-23T11:20:37.343Z,23.88
2023-05-23T11:23:08.487Z,24.39
2023-05-23T11:25:49.557Z,23.31
2023-05-23T11:28:17.566Z,25.34
2023-05-23T11:30:47.666Z,25.76
2023-05-23T11:33:17.309Z,24.98
2023-05-23T11:35:45.559Z,26.25
2023-05-23T11:38:14.413Z,25.12
2023-05-23T11:40:43.973Z,24.95
2023-05-23T11:43:16.763Z,24.58
2023-05-23T11:45:44.313Z,24.00
2023-05-23T11:48:16.847Z,24.59
2023-05-23T11:50:49.091Z,24.13
2023-05-23T11:53:19.223Z,24.65
2023-05-23T11:55:58.622Z,24.50
2023-05-23T11:58:35.944Z,25.48
2023-05-23T12:01:04.955Z,24.18
2023-05-23T12:03:32.337Z,25.21
2023-05-23T12:05:59.775Z,24.36
2023-05-23T12:08:27.002Z,25.71
2023-05-23T12:10:57.265Z,28.13
2023-05-23T12:13:26.249Z,29.62
2023-05-23T12:15:58.755Z,26.95
2023-05-23T12:18:29.833Z,29.64
2023-05-23T12:21:01.525Z,29.87
2023-05-23T12:23:29.394Z,28.24
2023-05-23T12:25:57.523Z,27.18
2023-05-23T12:28:43.193Z,26.29
2023-05-23T12:31:21.633Z,26.98
2023-05-23T12:33:50.061Z,26.51
2023-05-23T12:36:29.727Z,24.58
2023-05-23T12:39:05.224Z,25.14
2023-05-23T12:41:33.897Z,24.43
2023-05-23T12:44:01.129Z,25.03
2023-05-23T12:46:28.375Z,23.64
2023-05-23T12:48:55.333Z,24.19
2023-05-23T12:51:22.561Z,26.82
2023-05-23T12:53:49.636Z,26.07
2023-05-23T12:56:16.733Z,25.89
2023-05-23T12:58:44.030Z,28.01
2023-05-23T13:01:11.455Z,28.88
2023-05-23T13:03:38.520Z,27.41
2023-05-23T13:06:05.954Z,27.60
2023-05-23T13:08:32.996Z,27.28
2023-05-23T13:11:00.046Z,26.23
2023-05-23T13:13:27.177Z,27.87
2023-05-23T13:15:54.465Z,27.01
2023-05-23T13:18:21.536Z,26.53
2023-05-23T13:20:48.565Z,25.77
2023-05-23T13:23:15.538Z,24.90
2023-05-23T13:25:42.531Z,27.77
2023-05-23T13:28:10.288Z,26.70
2023-05-23T13:30:37.126Z,25.69
2023-05-23T13:33:05.275Z,25.18
2023-05-23T13:35:32.615Z,25.10
2023-05-23T13:37:59.508Z,25.74
2023-05-23T13:40:26.378Z,26.67
2023-05-23T13:42:53.423Z,25.60
2023-05-23T13:45:22.854Z,25.97
2023-05-23T13:47:50.000Z,23.91
2023-05-23T13:50:17.316Z,26.89
2023-05-23T13:52:47.320Z,25.64
2023-05-23T13:55:16.110Z,25.11
2023-05-23T13:57:42.983Z,25.23
2023-05-23T14:00:10.688Z,25.42
2023-05-23T14:02:37.730Z,25.37
2023-05-23T14:05:05.255Z,25.41
2023-05-23T14:07:32.338Z,25.72
2023-05-23T14:10:00.018Z,25.03
2023-05-23T14:12:27.166Z,24.16
2023-05-23T14:14:54.044Z,24.62
2023-05-23T14:17:21.000Z,24.95
2023-05-23T14:19:48.194Z,25.44
2023-05-23T14:22:15.236Z,26.37
2023-05-23T14:24:42.641Z,27.05
2023-05-23T14:27:11.313Z,27.14
2023-05-23T14:29:38.512Z,26.40
2023-05-23T14:32:05.693Z,27.19
2023-05-23T14:34:32.802Z,28.55
2023-05-23T14:37:00.682Z,27.21
2023-05-23T14:39:29.267Z,26.79
2023-05-23T14:41:56.465Z,27.31
2023-05-23T14:44:23.690Z,27.34
2023-05-23T14:46:50.877Z,27.57
2023-05-23T14:49:18.020Z,27.26
2023-05-23T14:51:51.244Z,25.89
2023-05-23T14:54:18.884Z,26.75
2023-05-23T14:56:46.300Z,27.41
2023-05-23T14:59:13.265Z,28.86
2023-05-23T15:01:40.604Z,26.64
2023-05-23T15:04:09.832Z,27.99
2023-05-23T15:06:38.141Z,28.83
2023-05-23T15:09:05.526Z,28.29
2023-05-23T15:11:33.275Z,28.18
2023-05-23T15:14:00.256Z,28.49
2023-05-23T15:16:27.400Z,29.20
2023-05-23T15:18:54.325Z,29.84
2023-05-23T15:21:21.220Z,30.32
2023-05-23T15:23:48.066Z,30.42
2023-05-23T15:26:14.967Z,30.71
2023-05-23T15:28:41.883Z,31.23
2023-05-23T15:31:08.760Z,31.06
2023-05-23T15:33:35.812Z,32.49
2023-05-23T15:36:02.734Z,32.76
2023-05-23T15:38:29.612Z,33.13
2023-05-23T15:40:56.999Z,33.47
2023-05-23T15:43:25.242Z,33.62
2023-05-23T15:45:52.895Z,34.32
2023-05-23T15:48:20.093Z,34.70
2023-05-23T15:50:47.094Z,35.30
2023-05-23T15:53:13.988Z,35.66
2023-05-23T15:55:42.614Z,37.02
2023-05-23T15:58:10.779Z,37.00
2023-05-23T16:00:37.732Z,36.08
2023-05-23T16:03:04.973Z,35.21
2023-05-23T16:05:31.906Z,37.00
2023-05-23T16:07:58.811Z,37.26
2023-05-23T16:10:25.745Z,37.84
2023-05-23T16:12:52.649Z,37.96
2023-05-23T16:15:19.602Z,39.30
2023-05-23T16:17:46.490Z,39.97
2023-05-23T16:20:13.326Z,41.78
2023-05-23T16:22:41.309Z,44.03
2023-05-23T16:25:09.475Z,44.89
2023-05-23T16:27:36.461Z,45.81
2023-05-23T16:30:04.460Z,48.44
2023-05-23T16:32:31.379Z,48.21
2023-05-23T16:34:58.248Z,48.33
2023-05-23T16:37:25.270Z,47.79
2023-05-23T16:39:52.392Z,46.73
2023-05-23T16:42:19.331Z,47.24
2023-05-23T16:44:46.325Z,46.85
2023-05-23T16:47:13.295Z,47.73
2023-05-23T16:49:40.167Z,48.05
2023-05-23T16:52:07.099Z,48.65
2023-05-23T16:54:33.946Z,49.53
2023-05-23T16:57:02.203Z,49.87
2023-05-23T16:59:30.138Z,50.12
2023-05-23T17:01:57.225Z,52.83
2023-05-23T17:04:24.465Z,53.90
2023-05-23T17:06:51.505Z,55.88
2023-05-23T17:09:18.524Z,56.95
2023-05-23T17:11:45.623Z,58.66
2023-05-23T17:14:12.944Z,59.31
2023-05-23T17:16:39.856Z,62.43
2023-05-23T17:19:07.776Z,64.49
2023-05-23T17:21:34.652Z,63.74
2023-05-23T17:24:02.548Z,66.45
2023-05-23T17:26:29.405Z,65.74
2023-05-23T17:28:56.392Z,65.58
2023-05-23T17:31:23.340Z,64.91
2023-05-23T17:33:50.283Z,68.15
2023-05-23T17:36:17.122Z,69.02
2023-05-23T17:38:44.036Z,68.25
2023-05-23T17:41:11.136Z,70.86
2023-05-23T17:43:38.006Z,71.50
2023-05-23T17:46:04.902Z,71.25
2023-05-23T17:48:45.894Z,73.85
2023-05-23T17:51:14.995Z,70.57
2023-05-23T17:53:42.469Z,73.80
2023-05-23T17:56:09.657Z,76.40
2023-05-23T17:58:38.208Z,75.09
2023-05-23T18:01:06.059Z,75.18
2023-05-23T18:03:32.938Z,77.53
2023-05-23T18:05:59.916Z,77.60
2023-05-23T18:08:26.820Z,77.13
2023-05-23T18:10:53.687Z,78.07
2023-05-23T18:13:20.830Z,80.90
2023-05-23T18:15:47.683Z,77.47
2023-05-23T18:18:16.675Z,79.69
2023-05-23T18:20:44.234Z,79.46
2023-05-23T18:23:12.174Z,85.42
2023-05-23T18:25:39.069Z,84.75
2023-05-23T18:28:06.049Z,84.73
2023-05-23T18:30:33.707Z,81.50
2023-05-23T18:33:00.883Z,80.93
2023-05-23T18:35:27.877Z,80.08
2023-05-23T18:37:54.837Z,81.12
2023-05-23T18:40:24.186Z,80.75
2023-05-23T18:42:52.268Z,79.74
2023-05-23T18:45:19.526Z,75.61
2023-05-23T18:47:46.596Z,73.55
2023-05-23T18:50:13.849Z,71.60
2023-05-23T18:52:41.016Z,72.56
2023-05-23T18:55:08.425Z,72.49
2023-05-23T18:57:35.299Z,72.85
2023-05-23T19:00:03.653Z,82.13
2023-05-23T19:02:30.675Z,80.89
2023-05-23T19:04:57.670Z,82.91
2023-05-23T19:07:24.586Z,79.23
2023-05-23T19:09:51.644Z,77.02
2023-05-23T19:12:19.413Z,78.29
2023-05-23T19:14:46.699Z,77.60
2023-05-23T19:17:13.618Z,79.48
2023-05-23T19:19:40.591Z,80.42
2023-05-23T19:22:07.490Z,79.09
2023-05-23T19:24:34.392Z,79.06
2023-05-23T19:27:02.466Z,82.53
2023-05-23T19:29:29.332Z,81.89
2023-05-23T19:31:56.468Z,82.27
2023-05-23T19:34:23.378Z,85.50
2023-05-23T19:36:50.305Z,80.77
2023-05-23T19:39:17.215Z,80.28
2023-05-23T19:41:44.040Z,79.14
2023-05-23T19:44:11.929Z,77.28
2023-05-23T19:46:38.913Z,75.04
2023-05-23T19:49:06.855Z,71.91
2023-05-23T19:51:33.733Z,72.12
2023-05-23T19:54:00.776Z,71.29
2023-05-23T19:56:29.045Z,70.97
2023-05-23T19:58:55.926Z,72.45
2023-05-23T20:01:22.988Z,71.53
2023-05-23T20:03:49.887Z,68.31
2023-05-23T20:06:16.970Z,68.89
2023-05-23T20:08:43.902Z,69.38
2023-05-23T20:11:10.953Z,67.96
2023-05-23T20:13:38.840Z,68.15
2023-05-23T20:16:07.990Z,67.24
2023-05-23T20:18:34.973Z,71.10
2023-05-23T20:21:04.894Z,72.75
2023-05-23T20:23:32.115Z,72.17
2023-05-23T20:25:59.039Z,72.40
2023-05-23T20:28:26.141Z,69.53
2023-05-23T20:30:53.170Z,70.57
2023-05-23T20:33:20.580Z,68.74
2023-05-23T20:35:50.403Z,66.98
2023-05-23T20:38:20.263Z,69.92
2023-05-23T20:40:50.886Z,72.21
2023-05-23T20:43:20.525Z,73.52
2023-05-23T20:45:48.446Z,74.38
2023-05-23T20:48:15.615Z,74.62
2023-05-23T20:50:44.352Z,71.90
2023-05-23T20:53:11.485Z,72.43
2023-05-23T20:55:38.402Z,73.56
2023-05-23T20:58:05.348Z,73.47
2023-05-23T21:00:32.269Z,73.07
2023-05-23T21:02:59.428Z,71.92
2023-05-23T21:05:26.542Z,72.27
2023-05-23T21:07:53.424Z,72.36
2023-05-23T21:10:20.296Z,74.88
2023-05-23T21:12:50.285Z,76.59
2023-05-23T21:15:18.296Z,74.00
2023-05-23T21:17:45.927Z,73.60
2023-05-23T21:20:13.464Z,71.68
2023-05-23T21:22:40.633Z,71.25
2023-05-23T21:25:07.682Z,75.14
2023-05-23T21:27:34.724Z,74.48
2023-05-23T21:30:01.684Z,74.30
2023-05-23T21:32:29.440Z,75.21
2023-05-23T21:34:56.626Z,75.24
2023-05-23T21:37:24.338Z,75.06
2023-05-23T21:39:52.581Z,73.57
2023-05-23T21:42:22.087Z,72.96
2023-05-23T21:44:48.934Z,74.09
2023-05-23T21:47:15.993Z,75.90
2023-05-23T21:49:43.225Z,75.48
2023-05-23T21:52:10.117Z,76.27
2023-05-23T21:54:36.920Z,78.11
2023-05-23T21:57:03.899Z,76.15
2023-05-23T21:59:30.810Z,75.08
2023-05-23T22:01:57.880Z,75.56
2023-05-23T22:04:24.951Z,77.09
2023-05-23T22:06:52.180Z,77.19
2023-05-23T22:09:19.118Z,78.06
2023-05-23T22:11:46.236Z,76.01
2023-05-23T22:14:13.220Z,74.13
2023-05-23T22:16:40.400Z,75.84
2023-05-23T22:19:10.122Z,80.28
2023-05-23T22:21:37.696Z,76.87
2023-05-23T22:24:05.496Z,76.19
2023-05-23T22:26:32.429Z,75.86
2023-05-23T22:28:59.330Z,75.53
2023-05-23T22:31:26.738Z,76.29
2023-05-23T22:33:53.721Z,78.27
2023-05-23T22:36:22.284Z,78.05
2023-05-23T22:38:49.700Z,79.31
2023-05-23T22:44:57.305Z,79.12
2023-05-23T22:47:24.487Z,79.13
2023-05-23T22:49:56.678Z,79.26
2023-05-23T22:52:26.455Z,79.09
2023-05-23T22:54:53.324Z,79.92
2023-05-23T22:57:20.157Z,79.60
2023-05-23T22:59:46.892Z,81.53
2023-05-23T23:02:13.740Z,81.57
2023-05-23T23:04:41.918Z,82.06
2023-05-23T23:07:09.054Z,81.53
2023-05-23T23:09:35.913Z,79.73
2023-05-23T23:12:02.807Z,77.59
2023-05-23T23:14:29.527Z,78.92
2023-05-23T23:16:58.195Z,80.02
2023-05-23T23:19:25.144Z,79.91
2023-05-23T23:21:52.041Z,81.58
2023-05-23T23:24:18.819Z,79.03
2023-05-23T23:26:45.558Z,84.65
2023-05-23T23:29:12.256Z,87.73
2023-05-23T23:31:39.005Z,89.08
2023-05-23T23:34:05.719Z,87.21
2023-05-23T23:36:32.412Z,87.57
2023-05-23T23:38:59.249Z,86.50
2023-05-23T23:41:27.017Z,87.86
2023-05-23T23:43:54.009Z,87.93
2023-05-23T23:46:21.001Z,88.99
2023-05-23T23:48:47.950Z,92.50
2023-05-23T23:51:14.826Z,91.43
2023-05-23T23:53:41.707Z,90.33
2023-05-23T23:56:08.596Z,97.57
2023-05-23T23:58:35.936Z,94.08
